Time;durP1;ratioP1;P1;durP2;ratioP2;P2;SDS_P1;SDS_P2;PMS_P1;PMS_P2;Temp;Humidity;BMP_temperature;BMP_pressure;BME280_temperature;BME280_humidity;BME280_pressure;Samples;Min_cycle;Max_cycle;Signal;HPM_P1;HPM_P2
2022/03/06 00:01:09;;;;;;;25.52;12.00;;;;;;;0.93;66.75;102234.69;5069186;28;20380;-84
2022/03/06 00:03:35;;;;;;;25.05;12.20;;;;;;;0.92;66.11;102240.59;5071505;28;20044;-83
2022/03/06 00:06:00;;;;;;;24.50;12.00;;;;;;;0.92;66.74;102238.06;5072719;28;20503;-84
2022/03/06 00:08:25;;;;;;;26.50;13.90;;;;;;;0.87;66.39;102242.09;5072364;28;20088;-84
2022/03/06 00:10:51;;;;;;;31.40;16.17;;;;;;;0.86;66.69;102237.78;5072022;28;20541;-84
2022/03/06 00:13:16;;;;;;;32.10;15.63;;;;;;;0.88;66.60;102239.59;5072411;28;20443;-84
2022/03/06 00:15:42;;;;;;;33.47;18.45;;;;;;;0.84;66.76;102245.38;5072749;28;20044;-84
2022/03/06 00:18:08;;;;;;;32.55;16.95;;;;;;;0.85;66.77;102236.03;5072148;28;20099;-85
2022/03/06 00:20:33;;;;;;;34.33;18.33;;;;;;;0.82;66.52;102248.66;5072326;28;20469;-84
2022/03/06 00:22:58;;;;;;;36.70;19.02;;;;;;;0.80;66.51;102247.69;5072685;28;20024;-84
2022/03/06 00:25:23;;;;;;;36.53;18.98;;;;;;;0.77;66.56;102245.88;5071074;28;20051;-84
2022/03/06 00:27:49;;;;;;;34.45;18.02;;;;;;;0.73;66.86;102242.31;5072452;28;20033;-84
2022/03/06 00:30:15;;;;;;;32.72;16.45;;;;;;;0.76;66.59;102247.56;5067273;28;20025;-84
2022/03/06 00:32:40;;;;;;;29.83;15.55;;;;;;;0.73;66.31;102249.97;5055196;28;20033;-84
2022/03/06 00:35:07;;;;;;;33.95;17.80;;;;;;;0.69;66.80;102249.75;5056019;28;20056;-84
2022/03/06 00:37:32;;;;;;;34.10;17.25;;;;;;;0.69;66.93;102254.88;5055800;28;20033;-84
2022/03/06 00:39:57;;;;;;;33.10;17.25;;;;;;;0.67;66.61;102252.25;5055418;28;20075;-84
2022/03/06 00:42:25;;;;;;;32.35;15.63;;;;;;;0.70;67.07;102266.84;5055470;28;20048;-84
2022/03/06 00:44:52;;;;;;;30.70;15.07;;;;;;;0.68;66.95;102261.63;5055709;28;20021;-84
2022/03/06 00:47:17;;;;;;;28.80;14.40;;;;;;;0.68;66.78;102266.75;5054959;28;20029;-83
2022/03/06 00:49:43;;;;;;;31.75;15.25;;;;;;;0.68;66.37;102268.44;5055979;28;20470;-84
2022/03/06 00:52:08;;;;;;;28.05;13.45;;;;;;;0.67;66.66;102274.34;5055420;28;20124;-85
2022/03/06 00:54:33;;;;;;;28.35;13.43;;;;;;;0.69;66.80;102276.16;5054849;28;20041;-84
2022/03/06 00:56:58;;;;;;;25.20;12.20;;;;;;;0.71;66.19;102281.38;5056123;28;20029;-84
2022/03/06 00:59:24;;;;;;;25.02;11.85;;;;;;;0.70;67.07;102279.63;5073394;28;20071;-84
2022/03/06 01:01:49;;;;;;;26.13;12.45;;;;;;;0.65;66.73;102281.06;5075018;28;20063;-84
2022/03/06 01:04:14;;;;;;;27.35;13.13;;;;;;;0.58;67.15;102275.66;5075594;28;20032;-84
2022/03/06 01:06:40;;;;;;;25.98;12.18;;;;;;;0.57;66.53;102275.56;5074990;28;20024;-84
2022/03/06 01:09:05;;;;;;;24.20;11.20;;;;;;;0.54;66.52;102278.00;5075634;28;20408;-83
2022/03/06 01:11:34;;;;;;;26.42;12.75;;;;;;;0.51;66.79;102288.06;5075109;28;20028;-83
2022/03/06 01:13:59;;;;;;;25.02;11.50;;;;;;;0.46;66.60;102285.28;5074759;28;20099;-84
2022/03/06 01:16:24;;;;;;;24.80;11.30;;;;;;;0.43;67.84;102285.13;5075257;28;20027;-84
2022/03/06 01:18:49;;;;;;;27.23;13.35;;;;;;;0.39;67.91;102286.66;5075488;28;20020;-84
2022/03/06 01:21:15;;;;;;;26.65;12.52;;;;;;;0.32;68.17;102289.72;5074067;28;20463;-84
2022/03/06 01:23:40;;;;;;;25.42;11.75;;;;;;;0.29;67.82;102287.00;5076572;28;20033;-84
2022/03/06 01:26:06;;;;;;;25.63;12.02;;;;;;;0.25;68.07;102285.97;5075538;28;20032;-84
2022/03/06 01:28:31;;;;;;;23.90;11.18;;;;;;;0.20;67.62;102287.41;5063436;28;20057;-84
2022/03/06 01:30:57;;;;;;;23.73;11.00;;;;;;;0.20;67.71;102292.50;5055458;28;20028;-84
2022/03/06 01:33:22;;;;;;;22.85;10.27;;;;;;;0.17;68.36;102286.38;5054923;28;20058;-84
2022/03/06 01:35:47;;;;;;;21.67;9.48;;;;;;;0.15;67.45;102291.41;5067040;28;20080;-85
2022/03/06 01:38:13;;;;;;;22.67;10.07;;;;;;;0.10;69.12;102301.38;5057663;28;20389;-84
2022/03/06 01:40:38;;;;;;;25.42;12.38;;;;;;;0.06;68.64;102293.47;5056396;28;20095;-84
2022/03/06 01:43:03;;;;;;;25.13;11.73;;;;;;;0.02;68.57;102302.66;5055358;28;20057;-84
2022/03/06 01:45:29;;;;;;;25.17;11.68;;;;;;;-0.02;68.67;102303.31;5054304;28;20104;-84
2022/03/06 01:47:56;;;;;;;24.75;12.25;;;;;;;-0.06;68.92;102301.38;5056496;28;20051;-84
2022/03/06 01:50:27;;;;;;;25.27;11.98;;;;;;;-0.10;70.00;102307.13;5054041;28;20021;-84
2022/03/06 01:52:54;;;;;;;25.63;12.18;;;;;;;-0.12;68.78;102296.84;5054404;28;20083;-84
2022/03/06 01:55:20;;;;;;;26.27;12.30;;;;;;;-0.13;68.92;102299.31;5054480;28;20108;-84
2022/03/06 01:57:47;;;;;;;28.33;13.48;;;;;;;-0.17;70.00;102305.94;5074047;28;20021;-84
2022/03/06 02:00:19;;;;;;;30.70;15.88;;;;;;;-0.22;69.73;102297.16;5074477;28;20107;-84
2022/03/06 02:02:45;;;;;;;31.83;15.75;;;;;;;-0.24;70.12;102297.09;5074427;28;20035;-84
2022/03/06 02:05:11;;;;;;;28.38;14.43;;;;;;;-0.23;70.61;102301.41;5073855;28;20032;-84
2022/03/06 02:07:40;;;;;;;31.63;16.50;;;;;;;-0.24;70.40;102298.75;5074450;28;20032;-84
2022/03/06 02:10:06;;;;;;;31.02;15.50;;;;;;;-0.29;70.97;102301.06;5073681;28;20271;-84
2022/03/06 02:12:32;;;;;;;32.90;15.88;;;;;;;-0.27;70.92;102306.22;5074268;28;20108;-84
2022/03/06 02:15:00;;;;;;;30.27;15.32;;;;;;;-0.25;70.41;102304.63;5074068;28;20037;-84
2022/03/06 02:17:26;;;;;;;27.77;13.75;;;;;;;-0.24;70.09;102311.50;5073384;28;20025;-84
2022/03/06 02:19:52;;;;;;;27.95;13.50;;;;;;;-0.24;69.55;102309.84;5073992;28;20468;-84
2022/03/06 02:22:19;;;;;;;25.40;11.68;;;;;;;-0.26;69.75;102301.22;5054797;28;20044;-84
2022/03/06 02:24:44;;;;;;;24.02;11.02;;;;;;;-0.23;69.51;102313.25;5053420;28;20382;-84
2022/03/06 02:27:10;;;;;;;22.58;10.43;;;;;;;-0.25;69.02;102309.75;5054013;28;20024;-84
2022/03/06 02:29:42;;;;;;;24.40;11.65;;;;;;;-0.27;69.40;102314.78;5054039;28;20040;-84
2022/03/06 02:32:13;;;;;;;22.13;9.98;;;;;;;-0.29;68.64;102311.25;5053517;28;20044;-84
2022/03/06 02:34:40;;;;;;;24.50;11.35;;;;;;;-0.32;70.23;102314.53;5053893;28;20028;-84
2022/03/06 02:37:06;;;;;;;27.23;12.93;;;;;;;-0.38;70.52;102313.31;5053832;28;20025;-84
2022/03/06 02:39:31;;;;;;;27.50;12.65;;;;;;;-0.38;71.13;102329.50;5054050;28;20087;-84
2022/03/06 02:41:56;;;;;;;26.08;12.27;;;;;;;-0.39;69.52;102320.09;5053900;28;20425;-84
2022/03/06 02:44:22;;;;;;;24.67;11.95;;;;;;;-0.42;70.97;102321.59;5053964;28;20099;-85
2022/03/06 02:46:48;;;;;;;22.75;10.38;;;;;;;-0.45;70.44;102322.31;5053352;28;20029;-84
2022/03/06 02:49:16;;;;;;;24.08;11.38;;;;;;;-0.46;69.79;102318.00;5064029;28;20048;-84
2022/03/06 02:51:43;;;;;;;25.08;11.55;;;;;;;-0.48;70.25;102317.94;5073567;28;20123;-84
2022/03/06 02:54:10;;;;;;;23.50;10.32;;;;;;;-0.50;71.30;102318.63;5072806;28;20484;-84
2022/03/06 02:56:36;;;;;;;24.35;11.40;;;;;;;-0.55;72.12;102322.63;5071000;28;20036;-84
2022/03/06 02:59:02;;;;;;;25.20;11.63;;;;;;;-0.56;71.64;102331.94;5073451;28;20051;-84
2022/03/06 03:01:28;;;;;;;25.98;12.32;;;;;;;-0.62;72.72;102323.97;5072989;28;20025;-84
2022/03/06 03:03:53;;;;;;;27.33;13.38;;;;;;;-0.66;71.92;102322.03;5073400;28;20026;-84
2022/03/06 03:06:18;;;;;;;26.05;12.18;;;;;;;-0.68;71.55;102324.50;5072509;28;20032;-84
2022/03/06 03:08:46;;;;;;;25.70;11.65;;;;;;;-0.70;70.55;102322.66;5060852;28;20094;-84
2022/03/06 03:11:12;;;;;;;28.40;14.05;;;;;;;-0.75;72.98;102335.16;5053742;28;20051;-84
2022/03/06 03:13:40;;;;;;;26.88;12.93;;;;;;;-0.78;72.06;102330.75;5052151;28;20029;-83
2022/03/06 03:16:06;;;;;;;27.98;14.27;;;;;;;-0.81;74.01;102334.81;5053393;28;20029;-84
2022/03/06 03:18:34;;;;;;;27.65;13.25;;;;;;;-0.84;72.79;102332.97;5056352;28;20070;-84
2022/03/06 03:20:59;;;;;;;28.13;13.50;;;;;;;-0.83;72.99;102342.38;5072593;28;20025;-84
2022/03/06 03:23:24;;;;;;;26.70;13.02;;;;;;;-0.85;73.34;102338.00;5072551;28;20392;-84
2022/03/06 03:25:50;;;;;;;30.00;14.18;;;;;;;-0.90;73.67;102331.75;5072990;28;20032;-84
2022/03/06 03:28:16;;;;;;;27.02;13.02;;;;;;;-0.94;74.81;102329.03;5072294;28;20020;-85
2022/03/06 03:30:41;;;;;;;28.63;14.67;;;;;;;-0.97;73.52;102327.97;5072866;28;20025;-84
2022/03/06 03:33:07;;;;;;;25.42;11.82;;;;;;;-0.96;72.16;102334.84;5072858;28;20031;-84
2022/03/06 03:35:32;;;;;;;24.17;11.57;;;;;;;-1.03;74.09;102320.88;5071670;28;20024;-84
2022/03/06 03:37:57;;;;;;;27.00;12.60;;;;;;;-1.03;73.77;102332.75;5072804;28;20099;-84
2022/03/06 03:40:23;;;;;;;26.25;11.65;;;;;;;-1.05;73.55;102327.53;5072317;28;20594;-84
2022/03/06 03:42:48;;;;;;;23.88;10.88;;;;;;;-1.07;72.84;102341.91;5072014;28;20021;-84
2022/03/06 03:45:14;;;;;;;24.17;11.02;;;;;;;-1.10;74.34;102336.63;5052920;28;20029;-84
2022/03/06 03:47:39;;;;;;;22.10;10.30;;;;;;;-1.12;72.39;102339.06;5065230;28;20460;-84
2022/03/06 03:50:05;;;;;;;22.58;10.25;;;;;;;-1.13;73.79;102339.00;5071864;28;20119;-85
2022/03/06 03:52:31;;;;;;;26.38;12.63;;;;;;;-1.19;73.81;102341.19;5072263;28;20466;-85
2022/03/06 03:54:56;;;;;;;26.45;11.98;;;;;;;-1.19;73.73;102346.28;5072317;28;20040;-84
2022/03/06 03:57:23;;;;;;;23.88;11.35;;;;;;;-1.21;72.75;102343.63;5070641;28;20029;-86
2022/03/06 03:59:49;;;;;;;25.52;11.50;;;;;;;-1.25;74.59;102347.69;5072921;28;20028;-85
2022/03/06 04:02:14;;;;;;;23.52;11.05;;;;;;;-1.23;73.16;102341.81;5072849;28;20534;-85
2022/03/06 04:04:39;;;;;;;22.52;10.40;;;;;;;-1.27;73.52;102344.16;5074572;28;20021;-84
2022/03/06 04:07:05;;;;;;;21.73;9.32;;;;;;;-1.25;72.86;102351.91;5076576;28;20025;-84
2022/03/06 04:09:30;;;;;;;23.05;10.73;;;;;;;-1.30;74.57;102346.56;5075658;28;20024;-84
2022/03/06 04:11:55;;;;;;;27.40;13.20;;;;;;;-1.37;74.71;102346.97;5076942;28;20143;-84
2022/03/06 04:14:21;;;;;;;27.40;13.18;;;;;;;-1.39;75.21;102353.63;5076301;28;20408;-85
2022/03/06 04:16:46;;;;;;;27.48;12.73;;;;;;;-1.38;75.43;102364.72;5070142;28;20029;-85
2022/03/06 04:19:11;;;;;;;26.20;12.45;;;;;;;-1.41;73.83;102366.31;5056835;28;20396;-85
2022/03/06 04:21:39;;;;;;;23.55;11.38;;;;;;;-1.43;74.80;102362.78;5056379;28;20032;-85
2022/03/06 04:24:05;;;;;;;24.30;11.70;;;;;;;-1.44;74.31;102362.69;5055609;28;20486;-85
2022/03/06 04:26:31;;;;;;;24.98;12.15;;;;;;;-1.45;75.04;102373.69;5056332;28;20032;-85
2022/03/06 04:28:58;;;;;;;27.05;13.05;;;;;;;-1.50;75.42;102373.41;5056444;28;20032;-85
2022/03/06 04:31:23;;;;;;;25.85;12.13;;;;;;;-1.52;74.41;102372.44;5055573;28;20080;-85
2022/03/06 04:33:51;;;;;;;24.05;10.90;;;;;;;-1.53;74.68;102369.81;5056150;28;20045;-84
2022/03/06 04:36:16;;;;;;;23.95;11.48;;;;;;;-1.57;75.49;102376.34;5056030;28;20041;-85
2022/03/06 04:38:42;;;;;;;27.30;13.55;;;;;;;-1.65;76.09;102368.28;5055607;28;20815;-85
2022/03/06 04:41:08;;;;;;;29.73;15.55;;;;;;;-1.69;77.29;102376.53;5057933;28;20462;-85
2022/03/06 04:43:34;;;;;;;28.25;14.43;;;;;;;-1.73;77.28;102378.00;5075482;28;20056;-85
2022/03/06 04:45:59;;;;;;;26.10;13.20;;;;;;;-1.70;75.96;102377.31;5059865;28;20072;-85
2022/03/06 04:48:24;;;;;;;27.83;14.00;;;;;;;-1.72;76.38;102383.97;5055646;28;20096;-85
2022/03/06 04:50:49;;;;;;;24.30;12.30;;;;;;;-1.69;75.19;102388.38;5055022;28;20093;-85
2022/03/06 04:53:15;;;;;;;23.90;11.35;;;;;;;-1.69;75.33;102394.34;5054512;28;20049;-85
2022/03/06 04:55:43;;;;;;;21.30;9.85;;;;;;;-1.68;75.20;102393.56;5055650;28;20025;-86
2022/03/06 04:58:08;;;;;;;22.38;10.23;;;;;;;-1.72;75.75;102394.16;5055342;28;20397;-85
2022/03/06 05:00:34;;;;;;;24.92;12.02;;;;;;;-1.73;76.31;102405.13;5055125;28;20037;-86
2022/03/06 05:02:59;;;;;;;24.42;11.85;;;;;;;-1.79;75.96;102400.53;5055719;28;20033;-85
2022/03/06 05:05:25;;;;;;;23.42;11.55;;;;;;;-1.76;75.38;102418.53;5055399;28;20024;-85
2022/03/06 05:07:50;;;;;;;22.00;10.25;;;;;;;-1.76;75.16;102413.47;5054563;28;20029;-85
2022/03/06 05:10:15;;;;;;;21.45;9.90;;;;;;;-1.75;75.06;102411.81;5056605;28;20037;-85
2022/03/06 05:12:41;;;;;;;24.63;12.18;;;;;;;-1.81;75.67;102411.41;5058478;28;20025;-84
2022/03/06 05:15:11;;;;;;;22.63;11.07;;;;;;;-1.78;75.06;102414.16;5049068;28;20096;-85
2022/03/06 05:17:43;;;;;;;23.23;11.25;;;;;;;-1.81;76.29;102409.78;5038737;28;20029;-85
2022/03/06 05:20:12;;;;;;;22.80;10.30;;;;;;;-1.82;75.39;102413.09;5035169;28;20051;-86
2022/03/06 05:22:38;;;;;;;24.60;12.55;;;;;;;-1.82;76.10;102423.28;5035109;28;20458;-85
2022/03/06 05:25:05;;;;;;;23.80;12.80;;;;;;;-1.83;76.16;102420.63;5035742;28;20030;-86
2022/03/06 05:27:31;;;;;;;25.25;12.57;;;;;;;-1.86;76.41;102416.22;5034342;28;20056;-85
2022/03/06 05:29:56;;;;;;;22.60;11.50;;;;;;;-1.84;76.07;102429.94;5035451;28;20025;-85
2022/03/06 05:32:24;;;;;;;25.10;13.00;;;;;;;-1.88;77.17;102427.97;5035188;28;20080;-85
2022/03/06 05:34:49;;;;;;;23.25;11.88;;;;;;;-1.87;75.89;102422.09;5034327;28;20363;-85
2022/03/06 05:37:15;;;;;;;22.95;11.30;;;;;;;-1.89;75.22;102429.66;5035371;28;20058;-85
2022/03/06 05:39:40;;;;;;;24.08;12.13;;;;;;;-1.92;77.08;102438.78;5041254;28;20076;-86
2022/03/06 05:42:06;;;;;;;24.90;11.88;;;;;;;-1.95;77.46;102434.34;5055303;28;20112;-85
2022/03/06 05:44:31;;;;;;;26.90;14.07;;;;;;;-1.95;76.07;102436.03;5053963;28;20029;-85
2022/03/06 05:46:56;;;;;;;25.00;13.30;;;;;;;-1.96;76.09;102437.69;5054982;28;20029;-86
2022/03/06 05:49:22;;;;;;;24.48;12.63;;;;;;;-1.96;76.10;102439.34;5053815;28;20104;-85
2022/03/06 05:51:47;;;;;;;24.35;12.25;;;;;;;-1.97;77.24;102445.22;5054858;28;20044;-85
2022/03/06 05:54:12;;;;;;;23.50;11.70;;;;;;;-1.98;76.52;102441.81;5054883;28;20035;-85
2022/03/06 05:56:41;;;;;;;22.63;10.77;;;;;;;-1.97;77.21;102447.78;5053993;28;20480;-85
2022/03/06 05:59:06;;;;;;;24.35;12.30;;;;;;;-2.03;76.60;102441.50;5053691;28;20044;-86
2022/03/06 06:01:32;;;;;;;23.25;12.00;;;;;;;-2.04;76.77;102444.88;5054639;28;20021;-85
2022/03/06 06:04:01;;;;;;;21.90;10.60;;;;;;;-2.01;75.84;102451.78;5053582;28;20405;-85
2022/03/06 06:06:27;;;;;;;22.73;11.65;;;;;;;-2.04;76.88;102462.69;5054452;28;20024;-85
2022/03/06 06:08:54;;;;;;;21.75;10.93;;;;;;;-2.02;76.03;102461.06;5054545;28;20028;-86
2022/03/06 06:11:20;;;;;;;24.05;12.60;;;;;;;-2.06;77.21;102464.25;5053645;28;20031;-85
2022/03/06 06:13:48;;;;;;;26.08;13.75;;;;;;;-2.06;77.64;102463.34;5066880;28;20032;-86
2022/03/06 06:16:14;;;;;;;24.92;12.80;;;;;;;-2.04;75.65;102462.69;5074180;28;20428;-86
2022/03/06 06:18:40;;;;;;;23.42;11.63;;;;;;;-2.02;76.48;102458.53;5074117;28;20032;-86
2022/03/06 06:21:06;;;;;;;20.75;10.48;;;;;;;-2.00;75.41;102468.81;5074612;28;20024;-86
2022/03/06 06:23:31;;;;;;;21.13;10.07;;;;;;;-2.00;75.67;102466.28;5073616;28;20078;-86
2022/03/06 06:25:56;;;;;;;20.58;10.38;;;;;;;-1.98;76.30;102474.91;5074167;28;20396;-87
2022/03/06 06:28:22;;;;;;;21.02;10.00;;;;;;;-1.99;76.11;102478.22;5074101;28;20029;-87
2022/03/06 06:30:47;;;;;;;21.08;10.55;;;;;;;-2.02;77.10;102481.44;5073513;28;20020;-86
2022/03/06 06:33:12;;;;;;;22.20;10.85;;;;;;;-2.00;75.77;102483.19;5072351;28;20458;-86
2022/03/06 06:35:38;;;;;;;21.20;10.07;;;;;;;-2.03;77.03;102473.72;5074310;28;20020;-87
2022/03/06 06:38:04;;;;;;;22.25;11.52;;;;;;;-2.01;76.04;102482.34;5073892;28;20027;-88
2022/03/06 06:40:30;;;;;;;21.98;11.00;;;;;;;-1.93;76.58;102485.38;5071303;28;20025;-87
2022/03/06 06:42:58;;;;;;;25.92;13.75;;;;;;;-1.52;76.77;102478.50;5054470;28;20025;-87
2022/03/06 06:45:23;;;;;;;25.98;14.05;;;;;;;-1.02;75.45;102480.63;5053700;28;20036;-87
2022/03/06 06:47:49;;;;;;;24.67;12.90;;;;;;;-0.52;74.36;102483.47;5054025;28;20187;-87
2022/03/06 06:50:14;;;;;;;24.45;12.93;;;;;;;-0.05;72.97;102489.47;5053964;28;20017;-87
2022/03/06 06:52:39;;;;;;;24.60;13.82;;;;;;;0.32;70.74;102493.13;5052932;28;20041;-86
2022/03/06 06:55:06;;;;;;;25.60;14.15;;;;;;;0.50;69.72;102498.34;5054274;28;20484;-87
2022/03/06 06:57:32;;;;;;;27.33;15.48;;;;;;;0.53;68.94;102491.72;5053751;28;20500;-88
2022/03/06 06:59:58;;;;;;;26.45;14.15;;;;;;;0.64;69.74;102494.84;5053647;28;20036;-87
2022/03/06 07:02:23;;;;;;;23.40;13.05;;;;;;;0.83;69.50;102506.00;5053432;28;20473;-87
2022/03/06 07:04:48;;;;;;;24.33;12.75;;;;;;;1.06;68.76;102510.63;5053911;28;20020;-87
2022/03/06 07:07:14;;;;;;;26.02;14.23;;;;;;;1.31;66.39;102499.06;5053817;28;20488;-87
2022/03/06 07:09:39;;;;;;;23.52;13.38;;;;;;;1.58;68.09;102506.31;5073119;22;20045;-87
2022/03/06 07:12:06;;;;;;;22.65;12.00;;;;;;;1.79;66.22;102510.75;5053280;28;20476;-87
2022/03/06 07:14:32;;;;;;;24.92;13.65;;;;;;;1.48;65.67;102512.69;5052669;28;20037;-86
2022/03/06 07:16:57;;;;;;;23.90;13.23;;;;;;;1.00;66.27;102510.31;5053549;28;20033;-87
2022/03/06 07:19:23;;;;;;;22.98;12.52;;;;;;;0.64;67.81;102510.19;5052658;28;20108;-87
2022/03/06 07:21:48;;;;;;;24.10;12.75;;;;;;;0.31;68.55;102517.81;5053600;28;20378;-87
2022/03/06 07:24:13;;;;;;;23.75;12.90;;;;;;;0.07;68.92;102520.78;5053343;28;20079;-88
2022/03/06 07:26:43;;;;;;;22.92;12.38;;;;;;;-0.07;69.69;102530.25;5058721;28;20029;-87
2022/03/06 07:29:08;;;;;;;21.85;11.57;;;;;;;-0.13;70.07;102529.88;5054626;28;20021;-87
2022/03/06 07:31:34;;;;;;;23.75;13.35;;;;;;;-0.26;70.32;102528.31;5053272;28;20355;-87
2022/03/06 07:34:00;;;;;;;24.63;13.90;;;;;;;-0.48;71.32;102534.75;5052534;28;20047;-88
2022/03/06 07:36:25;;;;;;;24.75;13.38;;;;;;;-0.49;71.43;102542.31;5051409;28;20033;-87
2022/03/06 07:39:06;;;;;;;25.80;14.88;;;;;;;-0.58;71.48;102545.22;5050420;28;20021;-89
2022/03/06 07:41:31;;;;;;;26.42;14.52;;;;;;;-0.62;71.86;102553.47;5034455;28;20096;-87
2022/03/06 07:44:00;;;;;;;28.92;16.48;;;;;;;-0.67;72.36;102553.22;5037633;28;20087;-87
2022/03/06 07:46:25;;;;;;;26.80;16.05;;;;;;;-0.77;73.19;102545.81;5036893;28;20037;-84
2022/03/06 07:48:50;;;;;;;27.42;16.45;;;;;;;-0.72;72.62;102558.81;5036313;28;20049;-85
2022/03/06 07:51:28;;;;;;;28.40;15.73;;;;;;;-0.75;72.16;102546.78;5032021;28;20029;-87
2022/03/06 07:54:07;;;;;;;26.90;15.35;;;;;;;-0.74;73.11;102550.22;5033917;28;20021;-87
2022/03/06 07:56:33;;;;;;;26.27;15.13;;;;;;;-0.63;73.58;102569.56;5032894;28;20025;-87
2022/03/06 07:59:04;;;;;;;27.17;15.45;;;;;;;-0.53;72.74;102571.00;5033487;28;20076;-87
2022/03/06 08:01:29;;;;;;;26.02;13.98;;;;;;;-0.47;72.55;102573.88;5032333;28;20034;-87
2022/03/06 08:03:54;;;;;;;23.67;13.35;;;;;;;-0.44;72.36;102573.16;5032951;28;20032;-87
2022/03/06 08:08:55;;;;;;;30.83;18.15;;;;;;;-0.51;72.80;102577.06;5806864;22;20056;-87
2022/03/06 08:11:20;;;;;;;28.60;16.55;;;;;;;-0.44;72.49;102584.28;5072885;28;20370;-87
2022/03/06 08:13:46;;;;;;;27.05;14.85;;;;;;;-0.36;72.72;102574.53;5076006;28;20032;-87
2022/03/06 08:16:11;;;;;;;27.35;15.73;;;;;;;-0.23;72.50;102586.28;5072596;28;20020;-87
2022/03/06 08:18:36;;;;;;;27.33;16.17;;;;;;;-0.19;72.47;102591.66;5073156;28;20048;-87
2022/03/06 08:21:02;;;;;;;26.48;15.30;;;;;;;-0.10;72.01;102592.97;5072636;28;20021;-86
2022/03/06 08:23:27;;;;;;;26.25;15.10;;;;;;;-0.05;71.72;102592.44;5072168;28;20027;-87
2022/03/06 08:25:53;;;;;;;24.95;14.45;;;;;;;0.03;72.07;102587.78;5073121;28;20040;-85
2022/03/06 08:28:18;;;;;;;26.55;15.00;;;;;;;0.13;71.30;102590.03;5072176;28;20020;-86
2022/03/06 08:30:43;;;;;;;27.15;16.13;;;;;;;0.20;71.30;102593.81;5072095;28;20021;-86
2022/03/06 08:33:08;;;;;;;28.27;16.45;;;;;;;0.22;70.17;102596.47;5072888;28;20021;-88
2022/03/06 08:35:34;;;;;;;27.88;16.17;;;;;;;0.28;70.27;102600.22;5053227;28;20025;-88
2022/03/06 08:38:22;;;;;;;25.98;15.20;;;;;;;0.44;70.41;102607.09;5065997;28;20033;-88
2022/03/06 08:41:08;;;;;;;28.05;16.70;;;;;;;0.49;70.55;102606.44;5062432;28;20049;-90
2022/03/06 08:43:33;;;;;;;26.95;15.85;;;;;;;0.51;70.58;102600.59;5073454;28;20039;-90
2022/03/06 08:45:58;;;;;;;25.23;14.93;;;;;;;0.67;70.80;102609.13;5072740;28;20107;-90
2022/03/06 08:48:24;;;;;;;25.80;15.15;;;;;;;0.77;70.28;102608.81;5073212;28;20024;-89
2022/03/06 08:50:49;;;;;;;25.83;14.70;;;;;;;0.86;69.13;102606.75;5075781;28;20086;-90
2022/03/06 08:53:30;;;;;;;24.80;14.65;;;;;;;0.99;69.33;102607.38;5076770;28;20028;-89
2022/03/06 08:55:55;;;;;;;25.20;15.18;;;;;;;1.05;68.37;102594.94;5076362;28;20031;-89
2022/03/06 09:03:31;;;;;;;27.25;15.95;;;;;;;1.19;68.28;102616.13;5120741;23;20374;-87
2022/03/06 09:05:56;;;;;;;26.58;15.18;;;;;;;1.17;69.00;102603.25;5055980;28;20025;-87
2022/03/06 09:08:22;;;;;;;24.77;15.40;;;;;;;1.28;68.79;102616.59;5055968;28;20036;-86
2022/03/06 09:10:47;;;;;;;26.27;15.57;;;;;;;1.35;68.76;102613.53;5056331;28;20021;-86
2022/03/06 09:13:12;;;;;;;26.55;14.82;;;;;;;1.49;68.56;102615.91;5055705;28;20081;-86
2022/03/06 09:15:38;;;;;;;25.42;14.45;;;;;;;1.57;67.77;102613.75;5056246;28;20041;-86
2022/03/06 09:18:07;;;;;;;25.35;14.80;;;;;;;1.68;68.30;102617.72;5056182;28;20103;-85
2022/03/06 09:20:34;;;;;;;26.50;16.13;;;;;;;1.73;67.74;102613.72;5055784;28;20021;-89
2022/03/06 09:22:59;;;;;;;24.75;14.07;;;;;;;1.82;66.82;102610.72;5055920;28;20136;-89
2022/03/06 09:25:24;;;;;;;25.13;14.93;;;;;;;1.88;66.71;102618.72;5050986;28;20052;-86
2022/03/06 09:27:50;;;;;;;25.67;15.00;;;;;;;1.93;67.11;102614.69;5044451;28;20029;-86
2022/03/06 09:30:16;;;;;;;26.55;16.08;;;;;;;1.90;66.85;102617.13;5050345;28;20037;-88
2022/03/06 09:32:42;;;;;;;26.55;16.17;;;;;;;1.93;66.74;102601.88;5048355;28;20028;-85
2022/03/06 09:35:08;;;;;;;26.58;16.15;;;;;;;2.06;67.26;102612.72;5054785;28;20029;-86
2022/03/06 09:37:34;;;;;;;26.27;15.95;;;;;;;2.15;66.54;102606.38;5048914;28;20056;-85
2022/03/06 09:40:00;;;;;;;25.40;15.73;;;;;;;2.16;65.95;102614.94;5034618;28;20021;-88
2022/03/06 09:45:49;;;;;;;25.15;14.60;;;;;;;2.49;66.20;102609.63;5038634;28;20040;-88
2022/03/06 09:48:16;;;;;;;25.65;15.68;;;;;;;2.66;65.58;102612.13;5036705;28;20029;-88
2022/03/06 09:50:43;;;;;;;24.00;14.25;;;;;;;2.81;66.17;102612.81;5035952;28;20112;-88
2022/03/06 09:53:14;;;;;;;24.70;15.27;;;;;;;2.89;64.71;102605.44;5037877;28;20026;-89
2022/03/06 09:55:42;;;;;;;24.95;15.23;;;;;;;2.98;65.63;102608.44;5037668;28;20025;-90
2022/03/06 09:58:07;;;;;;;23.13;14.10;;;;;;;3.14;64.68;102601.41;5045645;28;20063;-90
2022/03/06 10:00:33;;;;;;;23.80;14.57;;;;;;;3.25;64.24;102600.19;5055115;28;20409;-89
2022/03/06 10:03:01;;;;;;;24.77;14.45;;;;;;;3.34;63.51;102612.56;5041594;28;20477;-89
2022/03/06 10:05:35;;;;;;;24.85;14.88;;;;;;;3.39;63.31;102608.47;5066200;28;20025;-89
2022/03/06 10:08:21;;;;;;;23.55;14.02;;;;;;;3.39;63.11;102606.81;5055934;28;20097;-88
2022/03/06 10:10:51;;;;;;;24.05;14.68;;;;;;;3.45;62.35;102605.28;5060631;28;20421;-88
2022/03/06 10:13:31;;;;;;;24.25;14.65;;;;;;;3.59;62.76;102599.06;5065559;28;20021;-89
2022/03/06 10:16:06;;;;;;;23.08;13.90;;;;;;;3.66;62.15;102607.91;5073516;28;20082;-88
2022/03/06 10:18:39;;;;;;;22.77;13.80;;;;;;;3.82;61.88;102612.88;5071451;28;20101;-89
2022/03/06 10:21:24;;;;;;;23.15;13.85;;;;;;;3.84;61.69;102612.94;5066265;28;20048;-88
2022/03/06 10:24:00;;;;;;;23.10;14.50;;;;;;;3.87;59.82;102615.63;5060010;28;20064;-90
2022/03/06 10:26:28;;;;;;;22.30;13.20;;;;;;;3.79;59.71;102605.03;5055677;28;20096;-89
2022/03/06 10:28:56;;;;;;;21.83;13.25;;;;;;;3.70;59.00;102597.81;5055598;28;20419;-88
2022/03/06 10:31:23;;;;;;;22.85;13.68;;;;;;;3.73;59.15;102609.91;5054300;28;20025;-87
2022/03/06 10:34:00;;;;;;;22.15;12.93;;;;;;;3.82;58.92;102612.88;5056339;28;20116;-91
2022/03/06 10:36:48;;;;;;;21.65;12.65;;;;;;;4.05;59.42;102617.19;5055838;28;20107;-89
2022/03/06 10:39:21;;;;;;;22.23;12.60;;;;;;;4.07;58.79;102625.81;5054122;28;20017;-86
2022/03/06 10:41:49;;;;;;;21.65;12.93;;;;;;;4.16;57.91;102616.81;5053651;28;20311;-86
2022/03/06 10:44:17;;;;;;;21.05;12.43;;;;;;;4.28;58.95;102612.94;5053792;28;20021;-84
2022/03/06 10:46:56;;;;;;;21.52;12.63;;;;;;;4.39;57.96;102614.22;5054063;28;20032;-90
2022/03/06 10:49:21;;;;;;;22.33;12.95;;;;;;;4.33;57.54;102606.28;5054378;28;20416;-89
2022/03/06 10:51:49;;;;;;;22.08;13.02;;;;;;;4.46;56.99;102616.25;5054919;28;20082;-87
2022/03/06 10:54:19;;;;;;;21.70;12.63;;;;;;;4.45;55.86;102616.16;5055427;28;20028;-88
2022/03/06 10:56:50;;;;;;;20.73;12.30;;;;;;;4.42;55.61;102610.94;5055041;28;20469;-87
2022/03/06 10:59:19;;;;;;;23.17;13.05;;;;;;;4.38;55.72;102609.03;5053814;28;20021;-87
2022/03/06 11:01:47;;;;;;;21.40;12.18;;;;;;;4.48;55.76;102611.16;5053715;28;20128;-87
2022/03/06 11:04:13;;;;;;;21.33;12.85;;;;;;;4.20;54.47;102604.06;5053854;28;20048;-87
2022/03/06 11:06:41;;;;;;;20.45;12.20;;;;;;;4.36;55.31;102619.28;5053239;28;20404;-88
2022/03/06 11:11:35;;;;;;;21.67;12.18;;;;;;;4.62;54.72;102611.66;5059581;22;20055;-87
2022/03/06 11:14:01;;;;;;;21.63;12.50;;;;;;;4.50;52.68;102608.66;5053355;28;20406;-87
2022/03/06 11:16:27;;;;;;;21.42;12.18;;;;;;;4.52;53.33;102601.84;5052599;28;20389;-87
2022/03/06 11:18:53;;;;;;;21.30;12.30;;;;;;;4.77;54.21;102596.81;5052905;28;20021;-88
2022/03/06 11:21:19;;;;;;;21.40;12.15;;;;;;;4.88;52.84;102594.66;5053073;28;20527;-87
2022/03/06 11:23:48;;;;;;;21.30;12.23;;;;;;;4.92;53.13;102600.78;5053263;28;20469;-87